| time (UTC) | temp C | wind direction | speed KPH | gust KPH | rain 1hr cm | rain 24hr cm | rain mn cm | humidity % | barometer mb |
| 20260507115003 | 8 | 282 | 4.8 | 12.9 | 0.00 | 1.02 | 0.41 | 84 | 1005.3 |
| 20260507114503 | 8 | 260 | 4.8 | 12.9 | 0.00 | 1.02 | 0.41 | 85 | 1005.7 |
| 20260507114003 | 8 | 243 | 4.8 | 11.3 | 0.00 | 1.02 | 0.41 | 85 | 1005.8 |
| 20260507113503 | 8 | 257 | 6.4 | 14.5 | 0.00 | 1.02 | 0.41 | 85 | 1005.9 |
| 20260507113003 | 8 | 273 | 6.4 | 14.5 | 0.00 | 1.02 | 0.41 | 85 | 1005.6 |
| 20260507112503 | 8 | 279 | 6.4 | 16.1 | 0.00 | 1.02 | 0.41 | 85 | 1005.3 |
| 20260507112003 | 8 | 279 | 8.0 | 19.3 | 0.00 | 1.02 | 0.41 | 86 | 1005.7 |
| 20260507111503 | 8 | 280 | 8.0 | 19.3 | 0.00 | 1.02 | 0.41 | 86 | 1005.6 |
| 20260507111003 | 8 | 287 | 6.4 | 16.1 | 0.00 | 1.02 | 0.41 | 87 | 1005.1 |
| 20260507110503 | 8 | 289 | 6.4 | 16.1 | 0.00 | 1.02 | 0.41 | 87 | 1005.4 |
| 20260507110003 | 8 | 283 | 8.0 | 19.3 | 0.00 | 1.02 | 0.41 | 88 | 1005.3 |
| 20260507105503 | 8 | 277 | 8.0 | 19.3 | 0.00 | 1.02 | 0.41 | 88 | 1005.4 |
| 20260507105003 | 8 | 281 | 8.0 | 16.1 | 0.00 | 1.02 | 0.41 | 90 | 1005.4 |
| 20260507104503 | 7 | 296 | 6.4 | 16.1 | 0.00 | 1.02 | 0.41 | 90 | 1005.2 |
| 20260507104003 | 7 | 302 | 4.8 | 14.5 | 0.00 | 1.02 | 0.41 | 90 | 1005.1 |
| 20260507103503 | 7 | 285 | 6.4 | 12.9 | 0.00 | 1.02 | 0.41 | 90 | 1005.0 |
| 20260507103003 | 7 | 280 | 4.8 | 11.3 | 0.00 | 1.02 | 0.41 | 91 | 1005.2 |
| 20260507102524 | 7 | 289 | 4.8 | 12.9 | 0.00 | 1.02 | 0.41 | 91 | 1005.2 |
| 20260507102003 | 7 | 290 | 4.8 | 12.9 | 0.00 | 1.02 | 0.41 | 91 | 1005.0 |
| 20260507101503 | 7 | 296 | 6.4 | 16.1 | 0.00 | 1.02 | 0.41 | 91 | 1005.0 |
| 20260507101003 | 7 | 304 | 6.4 | 16.1 | 0.00 | 1.02 | 0.41 | 91 | 1004.9 |
| 20260507100503 | 7 | 294 | 6.4 | 16.1 | 0.00 | 1.02 | 0.41 | 91 | 1005.0 |
| 20260507100003 | 7 | 287 | 6.4 | 16.1 | 0.00 | 1.02 | 0.41 | 91 | 1005.1 |
| 20260507095503 | 7 | 285 | 6.4 | 16.1 | 0.00 | 1.02 | 0.41 | 91 | 1005.0 |
| 20260507095003 | 7 | 267 | 4.8 | 16.1 | 0.00 | 1.02 | 0.41 | 91 | 1005.0 |
| 20260507094503 | 7 | 270 | 3.2 | 11.3 | 0.00 | 1.02 | 0.41 | 91 | 1005.0 |
| 20260507094003 | 7 | 284 | 3.2 | 12.9 | 0.00 | 1.02 | 0.41 | 91 | 1004.9 |
| 20260507093503 | 7 | 285 | 4.8 | 12.9 | 0.00 | 1.02 | 0.41 | 91 | 1005.0 |
| 20260507093003 | 7 | 280 | 4.8 | 12.9 | 0.00 | 1.02 | 0.41 | 92 | 1005.0 |
| 20260507092524 | 7 | 276 | 4.8 | 12.9 | 0.00 | 1.02 | 0.41 | 92 | 1005.2 |
| 20260507092003 | 6 | 276 | 4.8 | 17.7 | 0.00 | 1.02 | 0.41 | 92 | 1005.3 |
| 20260507091503 | 6 | 286 | 6.4 | 17.7 | 0.00 | 1.02 | 0.41 | 92 | 1005.0 |
| 20260507091003 | 7 | 292 | 8.0 | 17.7 | 0.00 | 1.02 | 0.41 | 92 | 1004.7 |
| 20260507090524 | 7 | 290 | 8.0 | 17.7 | 0.00 | 1.02 | 0.41 | 92 | 1004.6 |
| 20260507090003 | 7 | 285 | 8.0 | 17.7 | 0.00 | 1.02 | 0.41 | 92 | 1004.6 |
| 20260507085503 | 7 | 280 | 8.0 | 19.3 | 0.00 | 1.02 | 0.41 | 92 | 1004.7 |
| 20260507085003 | 7 | 282 | 8.0 | 19.3 | 0.00 | 1.02 | 0.41 | 92 | 1004.6 |
| 20260507084503 | 7 | 287 | 6.4 | 14.5 | 0.00 | 1.02 | 0.41 | 92 | 1004.7 |
| 20260507084003 | 7 | 285 | 6.4 | 17.7 | 0.00 | 1.02 | 0.41 | 93 | 1004.5 |
| 20260507083503 | 7 | 289 | 8.0 | 17.7 | 0.00 | 1.02 | 0.41 | 93 | 1004.8 |
| 20260507083003 | 7 | 301 | 8.0 | 17.7 | 0.00 | 1.02 | 0.41 | 93 | 1004.6 |
| 20260507082503 | 7 | 295 | 6.4 | 16.1 | 0.00 | 1.02 | 0.41 | 93 | 1004.4 |
| 20260507082024 | 7 | 284 | 6.4 | 22.5 | 0.00 | 1.02 | 0.41 | 93 | 1004.7 |
| 20260507081503 | 7 | 292 | 6.4 | 22.5 | 0.00 | 1.02 | 0.41 | 93 | 1004.7 |
| 20260507081003 | 7 | 300 | 6.4 | 19.3 | 0.00 | 1.02 | 0.41 | 93 | 1004.4 |
| 20260507080503 | 7 | 304 | 8.0 | 19.3 | 0.00 | 1.02 | 0.41 | 93 | 1004.4 |
| 20260507080003 | 7 | 305 | 8.0 | 19.3 | 0.00 | 1.02 | 0.41 | 93 | 1004.3 |
| 20260507075503 | 7 | 301 | 8.0 | 19.3 | 0.00 | 1.02 | 0.41 | 93 | 1004.7 |
| 20260507075003 | 7 | 292 | 8.0 | 19.3 | 0.03 | 1.02 | 0.41 | 93 | 1004.7 |
| 20260507074503 | 7 | 294 | 6.4 | 16.1 | 0.03 | 1.02 | 0.41 | 93 | 1004.5 |
| 20260507074003 | 7 | 298 | 6.4 | 16.1 | 0.03 | 1.02 | 0.41 | 93 | 1004.3 |
| 20260507073503 | 7 | 290 | 6.4 | 14.5 | 0.03 | 1.02 | 0.41 | 93 | 1004.4 |
| 20260507073003 | 7 | 292 | 4.8 | 12.9 | 0.03 | 1.02 | 0.41 | 93 | 1004.4 |
| 20260507072503 | 7 | 295 | 6.4 | 19.3 | 0.03 | 1.02 | 0.41 | 94 | 1004.3 |
| 20260507072024 | 7 | 300 | 8.0 | 19.3 | 0.03 | 1.02 | 0.41 | 93 | 1004.2 |
| 20260507071503 | 7 | 300 | 8.0 | 17.7 | 0.03 | 1.02 | 0.41 | 93 | 1004.0 |
| 20260507071003 | 7 | 299 | 9.7 | 22.5 | 0.03 | 1.02 | 0.41 | 94 | 1004.0 |
| 20260507070503 | 8 | 298 | 9.7 | 24.1 | 0.03 | 1.02 | 0.41 | 94 | 1003.9 |
| 20260507070005 | 8 | 298 | 8.0 | 24.1 | 0.05 | 1.02 | 0.41 | 94 | 1004.0 |
| 20260507065503 | 8 | 295 | 6.4 | 16.1 | 0.08 | 1.02 | 0.41 | 94 | 1004.0 |
| 20260507065003 | 8 | 290 | 8.0 | 19.3 | 0.10 | 0.99 | 0.38 | 94 | 1003.8 |
| 20260507064524 | 8 | 297 | 8.0 | 19.3 | 0.13 | 0.99 | 0.38 | 94 | 1003.8 |
| 20260507064003 | 8 | 304 | 8.0 | 16.1 | 0.15 | 0.99 | 0.38 | 94 | 1003.6 |
| 20260507063503 | 8 | 307 | 8.0 | 16.1 | 0.15 | 0.99 | 0.38 | 94 | 1003.7 |
| 20260507063003 | 8 | 309 | 6.4 | 16.1 | 0.15 | 0.99 | 0.38 | 94 | 1003.6 |
| 20260507062503 | 8 | 293 | 4.8 | 17.7 | 0.20 | 0.99 | 0.38 | 94 | 1003.7 |
| 20260507062024 | 8 | 295 | 6.4 | 17.7 | 0.20 | 0.99 | 0.38 | 94 | 1003.7 |
| 20260507061503 | 8 | 310 | 8.0 | 20.9 | 0.23 | 0.99 | 0.38 | 94 | 1003.6 |
| 20260507061003 | 8 | 309 | 6.4 | 20.9 | 0.25 | 0.99 | 0.38 | 94 | 1003.4 |
| 20260507060503 | 8 | 289 | 4.8 | 11.3 | 0.25 | 0.99 | 0.38 | 94 | 1003.9 |
| 20260507060003 | 8 | 275 | 6.4 | 17.7 | 0.25 | 0.97 | 0.36 | 94 | 1004.1 |
| 20260507055503 | 8 | 268 | 8.0 | 17.7 | 0.25 | 0.94 | 0.33 | 94 | 1004.3 |
| 20260507055003 | 8 | 266 | 9.7 | 19.3 | 0.20 | 0.89 | 0.28 | 94 | 1004.3 |
| 20260507054503 | 8 | 271 | 9.7 | 19.3 | 0.20 | 0.86 | 0.25 | 94 | 1004.1 |
| 20260507054003 | 9 | 281 | 9.7 | 17.7 | 0.18 | 0.84 | 0.23 | 94 | 1003.9 |
| 20260507053503 | 9 | 287 | 8.0 | 17.7 | 0.18 | 0.84 | 0.23 | 94 | 1003.3 |
| 20260507053024 | 9 | 286 | 6.4 | 16.1 | 0.20 | 0.84 | 0.23 | 94 | 1003.2 |
| 20260507052503 | 9 | 300 | 9.7 | 20.9 | 0.15 | 0.79 | 0.20 | 94 | 1003.5 |
| 20260507052003 | 9 | 310 | 9.7 | 20.9 | 0.15 | 0.79 | 0.18 | 94 | 1003.4 |
| 20260507051503 | 9 | 301 | 8.0 | 20.9 | 0.15 | 0.76 | 0.15 | 94 | 1003.2 |
| 20260507051003 | 10 | 297 | 9.7 | 22.5 | 0.13 | 0.74 | 0.13 | 94 | 1003.2 |
| 20260507050503 | 10 | 293 | 9.7 | 24.1 | 0.13 | 0.74 | 0.13 | 94 | 1003.4 |
| 20260507050003 | 10 | 289 | 9.7 | 24.1 | 0.10 | 0.71 | 0.10 | 94 | 1003.5 |
| 20260507045503 | 10 | 294 | 11.3 | 22.5 | 0.08 | 0.69 | 0.08 | 94 | 1003.5 |
| 20260507045003 | 10 | 307 | 6.4 | 19.3 | 0.08 | 0.69 | 0.08 | 94 | 1003.7 |
| 20260507044503 | 10 | 286 | 4.8 | 14.5 | 0.05 | 0.66 | 0.05 | 94 | 1003.7 |
| 20260507044003 | 10 | 252 | 8.0 | 14.5 | 0.08 | 0.66 | 0.05 | 94 | 1003.5 |
| 20260507043503 | 10 | 232 | 6.4 | 12.9 | 0.08 | 0.66 | 0.05 | 94 | 1003.4 |
| 20260507043003 | 10 | 209 | 4.8 | 11.3 | 0.05 | 0.64 | 0.03 | 94 | 1003.1 |
| 20260507042503 | 10 | 198 | 4.8 | 14.5 | 0.05 | 0.64 | 0.03 | 94 | 1003.1 |
| 20260507042003 | 10 | 201 | 6.4 | 14.5 | 0.05 | 0.64 | 0.03 | 94 | 1003.0 |
| 20260507041503 | 10 | 197 | 4.8 | 12.9 | 0.03 | 0.61 | 0.00 | 94 | 1002.9 |
| 20260507041003 | 10 | 196 | 4.8 | 12.9 | 0.03 | 0.61 | 0.00 | 94 | 1003.0 |
| 20260507040503 | 10 | 206 | 6.4 | 14.5 | 0.03 | 0.61 | 0.00 | 94 | 1003.0 |
| 20260507040003 | 10 | 207 | 6.4 | 19.3 | 0.03 | 0.61 | 0.00 | 94 | 1003.1 |
| 20260507035524 | 10 | 201 | 8.0 | 19.3 | 0.03 | 0.61 | 0.61 | 94 | 1003.0 |
| 20260507035003 | 10 | 189 | 9.7 | 22.5 | 0.03 | 0.61 | 0.61 | 94 | 1003.0 |
| 20260507034503 | 10 | 180 | 11.3 | 27.4 | 0.03 | 0.61 | 0.61 | 94 | 1003.0 |
| 20260507034003 | 10 | 180 | 12.9 | 27.4 | 0.00 | 0.58 | 0.58 | 94 | 1003.0 |
| 20260507033503 | 10 | 179 | 12.9 | 25.7 | 0.00 | 0.58 | 0.58 | 94 | 1003.0 |
| 20260507033003 | 10 | 176 | 12.9 | 25.7 | 0.00 | 0.58 | 0.58 | 94 | 1002.9 |
| 20260507032503 | 10 | 179 | 12.9 | 24.1 | 0.00 | 0.58 | 0.58 | 93 | 1003.0 |
| 20260507032003 | 11 | 175 | 14.5 | 27.4 | 0.00 | 0.58 | 0.58 | 94 | 1002.9 |
| 20260507031524 | 11 | 176 | 16.1 | 27.4 | 0.00 | 0.58 | 0.58 | 94 | 1002.9 |
| 20260507031024 | 11 | 177 | 14.5 | 27.4 | 0.00 | 0.58 | 0.58 | 94 | 1002.9 |
| 20260507030503 | 11 | 170 | 16.1 | 30.6 | 0.00 | 0.58 | 0.58 | 93 | 1002.9 |
| 20260507030003 | 11 | 169 | 19.3 | 30.6 | 0.00 | 0.58 | 0.58 | 93 | 1003.0 |
| 20260507025503 | 11 | 170 | 17.7 | 30.6 | 0.00 | 0.58 | 0.58 | 94 | 1003.0 |
| 20260507025003 | 11 | 175 | 14.5 | 27.4 | 0.00 | 0.58 | 0.58 | 94 | 1003.1 |
| 20260507024503 | 11 | 175 | 12.9 | 32.2 | 0.00 | 0.58 | 0.58 | 94 | 1003.3 |
| 20260507024024 | 11 | 170 | 16.1 | 35.4 | 0.00 | 0.58 | 0.58 | 93 | 1003.3 |
| 20260507023503 | 11 | 172 | 16.1 | 35.4 | 0.00 | 0.58 | 0.58 | 93 | 1003.5 |
| 20260507023024 | 11 | 172 | 14.5 | 30.6 | 0.00 | 0.58 | 0.58 | 93 | 1003.5 |
| 20260507022524 | 11 | 170 | 16.1 | 30.6 | 0.00 | 0.58 | 0.58 | 93 | 1003.6 |
| 20260507022003 | 11 | 173 | 14.5 | 32.2 | 0.00 | 0.58 | 0.58 | 93 | 1003.6 |
| 20260507021524 | 11 | 175 | 12.9 | 32.2 | 0.00 | 0.58 | 0.58 | 93 | 1003.6 |
| 20260507021003 | 11 | 171 | 16.1 | 40.2 | 0.00 | 0.58 | 0.58 | 93 | 1003.7 |
| 20260507020524 | 11 | 169 | 20.9 | 40.2 | 0.00 | 0.58 | 0.58 | 93 | 1003.9 |
| 20260507020024 | 11 | 167 | 20.9 | 37.0 | 0.00 | 0.58 | 0.58 | 93 | 1003.9 |
| 20260507015503 | 11 | 169 | 20.9 | 38.6 | 0.00 | 0.58 | 0.58 | 93 | 1004.1 |
| 20260507015003 | 11 | 175 | 17.7 | 38.6 | 0.00 | 0.58 | 0.58 | 93 | 1004.1 |
| 20260507014503 | 11 | 179 | 16.1 | 33.8 | 0.00 | 0.58 | 0.58 | 93 | 1004.2 |
| 20260507014003 | 11 | 172 | 17.7 | 38.6 | 0.00 | 0.58 | 0.58 | 93 | 1004.3 |
| 20260507013503 | 11 | 167 | 19.3 | 38.6 | 0.00 | 0.58 | 0.58 | 93 | 1004.4 |
| 20260507013024 | 11 | 169 | 19.3 | 37.0 | 0.00 | 0.58 | 0.58 | 93 | 1004.5 |
| 20260507012524 | 11 | 172 | 17.7 | 30.6 | 0.00 | 0.58 | 0.58 | 93 | 1004.8 |
| 20260507012003 | 11 | 172 | 16.1 | 29.0 | 0.00 | 0.58 | 0.58 | 93 | 1004.8 |
| 20260507011503 | 11 | 169 | 14.5 | 27.4 | 0.00 | 0.58 | 0.58 | 93 | 1004.8 |
| 20260507010503 | 11 | 164 | 14.5 | 27.4 | 0.00 | 0.58 | 0.58 | 93 | 1005.2 |
| 20260507010003 | 11 | 166 | 14.5 | 29.0 | 0.00 | 0.58 | 0.58 | 93 | 1005.1 |
| 20260507005503 | 11 | 169 | 16.1 | 33.8 | 0.00 | 0.58 | 0.58 | 93 | 1005.2 |
| 20260507005003 | 11 | 166 | 16.1 | 33.8 | 0.00 | 0.58 | 0.58 | 93 | 1005.4 |
| 20260507004524 | 11 | 166 | 16.1 | 29.0 | 0.00 | 0.58 | 0.58 | 93 | 1005.4 |
| 20260507004003 | 11 | 172 | 16.1 | 35.4 | 0.00 | 0.58 | 0.58 | 93 | 1005.5 |
| 20260507003503 | 11 | 174 | 17.7 | 35.4 | 0.00 | 0.58 | 0.58 | 93 | 1005.5 |
| 20260507003003 | 11 | 173 | 16.1 | 35.4 | 0.00 | 0.58 | 0.58 | 93 | 1005.6 |
| 20260507002524 | 11 | 172 | 16.1 | 32.2 | 0.00 | 0.58 | 0.58 | 93 | 1005.6 |
| 20260507002003 | 11 | 175 | 16.1 | 32.2 | 0.03 | 0.58 | 0.58 | 93 | 1005.6 |
| 20260507001503 | 11 | 177 | 16.1 | 27.4 | 0.03 | 0.58 | 0.58 | 93 | 1005.7 |
| 20260507001003 | 11 | 175 | 16.1 | 33.8 | 0.03 | 0.58 | 0.58 | 93 | 1005.6 |
| 20260507000503 | 11 | 178 | 14.5 | 33.8 | 0.03 | 0.58 | 0.58 | 93 | 1005.7 |
| 20260507000003 | 11 | 179 | 16.1 | 35.4 | 0.05 | 0.58 | 0.58 | 93 | 1005.6 |
| 20260506235503 | 11 | 181 | 17.7 | 35.4 | 0.08 | 0.58 | 0.58 | 93 | 1005.7 |
| 20260506235003 | 11 | 178 | 17.7 | 35.4 | 0.08 | 0.58 | 0.58 | 92 | 1005.7 |
| 20260506234524 | 11 | 176 | 20.9 | 38.6 | 0.13 | 0.58 | 0.58 | 92 | 1005.6 |
| 20260506234003 | 11 | 178 | 19.3 | 38.6 | 0.15 | 0.58 | 0.58 | 92 | 1005.7 |
| 20260506233508 | 11 | 180 | 16.1 | 32.2 | 0.18 | 0.58 | 0.58 | 93 | 1005.7 |
| 20260506233003 | 11 | 177 | 16.1 | 40.2 | 0.20 | 0.58 | 0.58 | 93 | 1005.6 |
| 20260506232503 | 11 | 178 | 16.1 | 40.2 | 0.20 | 0.58 | 0.58 | 92 | 1005.7 |
| 20260506232003 | 11 | 183 | 14.5 | 35.4 | 0.23 | 0.56 | 0.56 | 93 | 1005.7 |
| 20260506231503 | 11 | 177 | 17.7 | 38.6 | 0.23 | 0.56 | 0.56 | 92 | 1005.5 |
| 20260506231003 | 11 | 173 | 17.7 | 48.3 | 0.25 | 0.56 | 0.56 | 92 | 1005.5 |
| 20260506230503 | 11 | 172 | 17.7 | 45.1 | 0.30 | 0.56 | 0.56 | 92 | 1005.7 |
| 20260506230003 | 11 | 167 | 17.7 | 37.0 | 0.30 | 0.53 | 0.53 | 92 | 1005.7 |
| 20260506225503 | 11 | 170 | 16.1 | 32.2 | 0.30 | 0.51 | 0.51 | 92 | 1005.7 |
| 20260506225003 | 11 | 170 | 14.5 | 32.2 | 0.30 | 0.51 | 0.51 | 92 | 1005.8 |
| 20260506224503 | 11 | 169 | 14.5 | 41.8 | 0.25 | 0.46 | 0.46 | 92 | 1006.0 |
| 20260506224003 | 11 | 169 | 19.3 | 41.8 | 0.25 | 0.43 | 0.43 | 92 | 1006.0 |
| 20260506223503 | 11 | 166 | 17.7 | 35.4 | 0.25 | 0.41 | 0.41 | 92 | 1006.1 |
| 20260506223003 | 11 | 164 | 14.5 | 35.4 | 0.25 | 0.38 | 0.38 | 92 | 1006.2 |
| 20260506222503 | 11 | 167 | 14.5 | 35.4 | 0.25 | 0.38 | 0.38 | 92 | 1006.2 |
| 20260506222003 | 11 | 173 | 16.1 | 30.6 | 0.23 | 0.33 | 0.33 | 92 | 1006.2 |
| 20260506221503 | 11 | 176 | 16.1 | 30.6 | 0.25 | 0.33 | 0.33 | 92 | 1006.4 |
| 20260506221003 | 11 | 178 | 16.1 | 35.4 | 0.23 | 0.30 | 0.30 | 92 | 1006.5 |
| 20260506220503 | 12 | 174 | 16.1 | 35.4 | 0.18 | 0.25 | 0.25 | 92 | 1006.6 |
| 20260506220003 | 12 | 171 | 16.1 | 30.6 | 0.15 | 0.23 | 0.23 | 92 | 1006.5 |
| 20260506215503 | 11 | 176 | 16.1 | 30.6 | 0.15 | 0.20 | 0.20 | 92 | 1006.3 |
| 20260506215024 | 11 | 177 | 14.5 | 25.7 | 0.15 | 0.20 | 0.20 | 91 | 1006.5 |
| 20260506214503 | 11 | 170 | 12.9 | 25.7 | 0.15 | 0.20 | 0.20 | 91 | 1006.4 |
| 20260506214003 | 11 | 170 | 14.5 | 33.8 | 0.15 | 0.18 | 0.18 | 91 | 1006.3 |
| 20260506213503 | 11 | 173 | 14.5 | 37.0 | 0.15 | 0.15 | 0.15 | 91 | 1006.4 |
| 20260506213024 | 11 | 175 | 14.5 | 37.0 | 0.13 | 0.13 | 0.13 | 91 | 1006.6 |
| 20260506212503 | 11 | 179 | 12.9 | 27.4 | 0.13 | 0.13 | 0.13 | 91 | 1006.7 |
| 20260506212003 | 11 | 175 | 14.5 | 27.4 | 0.10 | 0.10 | 0.10 | 90 | 1006.5 |
| 20260506211503 | 11 | 170 | 17.7 | 33.8 | 0.08 | 0.08 | 0.08 | 90 | 1006.7 |
| 20260506211003 | 11 | 167 | 19.3 | 33.8 | 0.08 | 0.08 | 0.08 | 90 | 1007.0 |
| 20260506210503 | 11 | 164 | 16.1 | 29.0 | 0.08 | 0.08 | 0.08 | 90 | 1006.9 |
| 20260506210003 | 11 | 167 | 16.1 | 35.4 | 0.08 | 0.08 | 0.08 | 90 | 1006.6 |
| 20260506205503 | 11 | 169 | 16.1 | 35.4 | 0.05 | 0.05 | 0.05 | 89 | 1006.7 |
| 20260506205003 | 12 | 172 | 14.5 | 29.0 | 0.05 | 0.05 | 0.05 | 89 | 1006.8 |
| 20260506204503 | 12 | 175 | 12.9 | 29.0 | 0.05 | 0.05 | 0.05 | 88 | 1006.9 |
| 20260506204003 | 12 | 174 | 16.1 | 37.0 | 0.03 | 0.03 | 0.03 | 88 | 1007.1 |
| 20260506203503 | 12 | 173 | 16.1 | 37.0 | 0.00 | 0.00 | 0.00 | 88 | 1007.2 |
| 20260506203003 | 12 | 174 | 12.9 | 29.0 | 0.00 | 0.00 | 0.00 | 88 | 1007.1 |
| 20260506202503 | 12 | 172 | 12.9 | 29.0 | 0.00 | 0.00 | 0.00 | 87 | 1007.2 |
| 20260506202003 | 12 | 169 | 16.1 | 33.8 | 0.00 | 0.00 | 0.00 | 87 | 1006.8 |
| 20260506201503 | 12 | 166 | 19.3 | 35.4 | 0.00 | 0.00 | 0.00 | 87 | 1006.7 |
| 20260506201024 | 12 | 171 | 19.3 | 35.4 | 0.00 | 0.00 | 0.00 | 86 | 1006.9 |
| 20260506200524 | 12 | 175 | 17.7 | 38.6 | 0.00 | 0.00 | 0.00 | 86 | 1007.0 |
| 20260506200003 | 12 | 170 | 19.3 | 38.6 | 0.00 | 0.00 | 0.00 | 86 | 1007.0 |
| 20260506195503 | 12 | 168 | 19.3 | 32.2 | 0.00 | 0.00 | 0.00 | 86 | 1006.7 |
| 20260506195003 | 12 | 167 | 17.7 | 40.2 | 0.00 | 0.00 | 0.00 | 85 | 1007.4 |
| 20260506194524 | 12 | 165 | 16.1 | 40.2 | 0.00 | 0.00 | 0.00 | 85 | 1007.2 |
| 20260506194024 | 12 | 169 | 12.9 | 32.2 | 0.00 | 0.00 | 0.00 | 84 | 1006.1 |
| 20260506193503 | 13 | 174 | 14.5 | 40.2 | 0.00 | 0.00 | 0.00 | 84 | 1007.2 |
| 20260506193024 | 13 | 176 | 14.5 | 40.2 | 0.00 | 0.00 | 0.00 | 83 | 1007.5 |
| 20260506192503 | 13 | 174 | 16.1 | 33.8 | 0.00 | 0.00 | 0.00 | 83 | 1007.4 |
| 20260506192003 | 13 | 165 | 16.1 | 33.8 | 0.00 | 0.00 | 0.00 | 82 | 1007.5 |
| 20260506191503 | 13 | 158 | 12.9 | 29.0 | 0.00 | 0.00 | 0.00 | 82 | 1007.2 |
| 20260506191003 | 13 | 157 | 11.3 | 25.7 | 0.00 | 0.00 | 0.00 | 82 | 1007.3 |
| 20260506190503 | 13 | 155 | 12.9 | 32.2 | 0.00 | 0.00 | 0.00 | 82 | 1007.2 |
| 20260506190024 | 14 | 154 | 12.9 | 32.2 | 0.00 | 0.00 | 0.00 | 82 | 1007.2 |
| 20260506185524 | 14 | 167 | 14.5 | 29.0 | 0.00 | 0.00 | 0.00 | 82 | 1007.1 |
| 20260506185003 | 14 | 172 | 17.7 | 38.6 | 0.00 | 0.00 | 0.00 | 82 | 1007.2 |
| 20260506184503 | 14 | 169 | 16.1 | 38.6 | 0.00 | 0.00 | 0.00 | 82 | 1007.2 |
| 20260506184024 | 14 | 171 | 16.1 | 37.0 | 0.00 | 0.00 | 0.00 | 82 | 1007.3 |
| 20260506183503 | 14 | 173 | 16.1 | 33.8 | 0.00 | 0.00 | 0.00 | 82 | 1007.3 |
| 20260506183003 | 14 | 169 | 17.7 | 33.8 | 0.00 | 0.00 | 0.00 | 82 | 1007.3 |
| 20260506182503 | 14 | 165 | 16.1 | 33.8 | 0.00 | 0.00 | 0.00 | 82 | 1007.2 |
| 20260506182024 | 14 | 167 | 16.1 | 32.2 | 0.00 | 0.00 | 0.00 | 82 | 1007.4 |
| 20260506181503 | 14 | 172 | 17.7 | 32.2 | 0.00 | 0.00 | 0.00 | 82 | 1007.4 |
| 20260506181024 | 14 | 173 | 17.7 | 35.4 | 0.00 | 0.00 | 0.00 | 82 | 1007.6 |
| 20260506180503 | 14 | 170 | 17.7 | 35.4 | 0.00 | 0.00 | 0.00 | 82 | 1007.6 |
| 20260506180004 | 14 | 170 | 16.1 | 33.8 | 0.00 | 0.00 | 0.00 | 82 | 1007.8 |
| 20260506175503 | 14 | 170 | 16.1 | 33.8 | 0.00 | 0.00 | 0.00 | 82 | 1007.9 |
| 20260506175003 | 14 | 169 | 16.1 | 37.0 | 0.00 | 0.00 | 0.00 | 82 | 1007.9 |
| 20260506174503 | 14 | 169 | 17.7 | 37.0 | 0.00 | 0.00 | 0.00 | 82 | 1007.9 |
| 20260506174024 | 14 | 169 | 19.3 | 37.0 | 0.00 | 0.00 | 0.00 | 81 | 1008.0 |
| 20260506173503 | 14 | 172 | 17.7 | 30.6 | 0.00 | 0.00 | 0.00 | 82 | 1008.0 |
| 20260506173003 | 14 | 179 | 16.1 | 29.0 | 0.00 | 0.00 | 0.00 | 82 | 1008.0 |
| 20260506172503 | 14 | 174 | 16.1 | 27.4 | 0.00 | 0.00 | 0.00 | 82 | 1008.3 |
| 20260506172003 | 14 | 162 | 16.1 | 27.4 | 0.00 | 0.00 | 0.00 | 82 | 1008.1 |
| 20260506171503 | 14 | 162 | 12.9 | 27.4 | 0.00 | 0.00 | 0.00 | 82 | 1008.2 |
| 20260506171003 | 14 | 174 | 14.5 | 33.8 | 0.00 | 0.00 | 0.00 | 82 | 1008.3 |
| 20260506170503 | 14 | 179 | 12.9 | 33.8 | 0.00 | 0.00 | 0.00 | 82 | 1008.4 |
| 20260506170003 | 14 | 182 | 11.3 | 30.6 | 0.00 | 0.00 | 0.00 | 82 | 1008.5 |
| 20260506165503 | 14 | 191 | 9.7 | 30.6 | 0.00 | 0.00 | 0.00 | 82 | 1008.5 |
| 20260506165003 | 14 | 190 | 9.7 | 22.5 | 0.00 | 0.00 | 0.00 | 83 | 1008.5 |
| 20260506164503 | 14 | 173 | 12.9 | 30.6 | 0.00 | 0.00 | 0.00 | 83 | 1008.4 |
| 20260506164003 | 14 | 167 | 17.7 | 32.2 | 0.00 | 0.00 | 0.00 | 83 | 1008.7 |
| 20260506163503 | 14 | 166 | 17.7 | 32.2 | 0.00 | 0.00 | 0.00 | 83 | 1008.7 |
| 20260506163024 | 14 | 166 | 14.5 | 29.0 | 0.00 | 0.00 | 0.00 | 82 | 1008.7 |
| 20260506162503 | 14 | 167 | 12.9 | 33.8 | 0.00 | 0.00 | 0.00 | 83 | 1008.8 |
| 20260506162003 | 14 | 175 | 12.9 | 27.4 | 0.00 | 0.00 | 0.00 | 83 | 1008.9 |
| 20260506161503 | 14 | 176 | 16.1 | 32.2 | 0.00 | 0.00 | 0.00 | 83 | 1008.9 |
| 20260506161024 | 14 | 173 | 16.1 | 35.4 | 0.00 | 0.00 | 0.00 | 82 | 1008.9 |
| 20260506160503 | 14 | 170 | 14.5 | 35.4 | 0.00 | 0.00 | 0.00 | 83 | 1009.0 |
| 20260506160024 | 14 | 167 | 12.9 | 25.7 | 0.00 | 0.00 | 0.00 | 83 | 1009.0 |
| 20260506155503 | 13 | 164 | 9.7 | 24.1 | 0.00 | 0.00 | 0.00 | 83 | 1009.1 |
| 20260506155003 | 13 | 147 | 8.0 | 19.3 | 0.00 | 0.00 | 0.00 | 83 | 1009.1 |
| 20260506154524 | 13 | 152 | 11.3 | 27.4 | 0.00 | 0.00 | 0.00 | 83 | 1009.0 |
| 20260506154003 | 13 | 158 | 12.9 | 27.4 | 0.00 | 0.00 | 0.00 | 83 | 1008.8 |
| 20260506153503 | 13 | 153 | 11.3 | 25.7 | 0.00 | 0.00 | 0.00 | 82 | 1008.8 |
| 20260506153024 | 14 | 157 | 11.3 | 24.1 | 0.00 | 0.00 | 0.00 | 82 | 1008.6 |
| 20260506152503 | 13 | 148 | 11.3 | 25.7 | 0.00 | 0.00 | 0.00 | 83 | 1008.6 |
| 20260506152003 | 14 | 134 | 9.7 | 25.7 | 0.00 | 0.00 | 0.00 | 82 | 1008.6 |
| 20260506151503 | 14 | 133 | 9.7 | 22.5 | 0.00 | 0.00 | 0.00 | 82 | 1008.6 |
| 20260506151003 | 14 | 144 | 12.9 | 22.5 | 0.00 | 0.00 | 0.00 | 81 | 1008.9 |
| 20260506150503 | 14 | 157 | 12.9 | 27.4 | 0.00 | 0.00 | 0.00 | 81 | 1009.0 |
| 20260506150003 | 14 | 161 | 11.3 | 27.4 | 0.00 | 0.00 | 0.00 | 81 | 1008.9 |
| 20260506145524 | 14 | 150 | 11.3 | 22.5 | 0.00 | 0.00 | 0.00 | 81 | 1009.0 |
| 20260506145003 | 14 | 134 | 9.7 | 20.9 | 0.00 | 0.00 | 0.00 | 79 | 1009.2 |
| 20260506144503 | 15 | 142 | 8.0 | 19.3 | 0.00 | 0.00 | 0.00 | 79 | 1009.3 |
| 20260506144003 | 15 | 158 | 9.7 | 25.7 | 0.00 | 0.00 | 0.00 | 80 | 1009.5 |
| 20260506143503 | 15 | 161 | 14.5 | 30.6 | 0.00 | 0.00 | 0.00 | 79 | 1009.5 |
| 20260506143024 | 15 | 164 | 14.5 | 30.6 | 0.00 | 0.00 | 0.00 | 79 | 1009.6 |
| 20260506142503 | 15 | 168 | 14.5 | 29.0 | 0.00 | 0.00 | 0.00 | 79 | 1009.6 |
| 20260506142003 | 15 | 164 | 11.3 | 25.7 | 0.00 | 0.00 | 0.00 | 78 | 1009.6 |
| 20260506141503 | 15 | 149 | 8.0 | 19.3 | 0.00 | 0.00 | 0.00 | 79 | 1009.5 |
| 20260506141003 | 15 | 146 | 9.7 | 22.5 | 0.00 | 0.00 | 0.00 | 79 | 1009.4 |
| 20260506140524 | 15 | 149 | 8.0 | 22.5 | 0.00 | 0.00 | 0.00 | 79 | 1009.3 |
| 20260506140024 | 15 | 151 | 6.4 | 16.1 | 0.00 | 0.00 | 0.00 | 79 | 1009.2 |
| 20260506135503 | 15 | 138 | 8.0 | 16.1 | 0.00 | 0.00 | 0.00 | 79 | 1009.4 |
| 20260506135003 | 15 | 134 | 6.4 | 14.5 | 0.00 | 0.00 | 0.00 | 78 | 1009.1 |
| 20260506134503 | 15 | 145 | 4.8 | 12.9 | 0.00 | 0.00 | 0.00 | 79 | 1009.2 |
| 20260506134003 | 15 | 132 | 6.4 | 12.9 | 0.00 | 0.00 | 0.00 | 80 | 1009.3 |
| 20260506133524 | 14 | 132 | 6.4 | 11.3 | 0.00 | 0.00 | 0.00 | 80 | 1009.4 |
| 20260506133024 | 14 | 159 | 6.4 | 16.1 | 0.00 | 0.00 | 0.00 | 81 | 1009.4 |
| 20260506132524 | 13 | 159 | 8.0 | 16.1 | 0.00 | 0.00 | 0.00 | 81 | 1009.4 |
| 20260506132003 | 13 | 145 | 6.4 | 14.5 | 0.00 | 0.00 | 0.00 | 81 | 1009.4 |
| 20260506131503 | 13 | 152 | 4.8 | 11.3 | 0.00 | 0.00 | 0.00 | 82 | 1009.5 |
| 20260506131024 | 13 | 144 | 4.8 | 11.3 | 0.00 | 0.00 | 0.00 | 81 | 1009.5 |
| 20260506130503 | 13 | 135 | 4.8 | 11.3 | 0.00 | 0.00 | 0.00 | 82 | 1009.7 |
| 20260506130003 | 13 | 149 | 6.4 | 12.9 | 0.00 | 0.00 | 0.00 | 83 | 1009.8 |
| 20260506125503 | 12 | 149 | 6.4 | 14.5 | 0.00 | 0.00 | 0.00 | 83 | 1009.7 |
| 20260506125003 | 13 | 144 | 6.4 | 14.5 | 0.00 | 0.00 | 0.00 | 83 | 1009.7 |
| 20260506124503 | 12 | 153 | 6.4 | 14.5 | 0.00 | 0.00 | 0.00 | 84 | 1009.7 |
| 20260506124003 | 12 | 163 | 9.7 | 22.5 | 0.00 | 0.00 | 0.00 | 84 | 1009.9 |
| 20260506123524 | 12 | 163 | 11.3 | 22.5 | 0.00 | 0.00 | 0.00 | 83 | 1009.8 |
| 20260506123024 | 12 | 157 | 11.3 | 22.5 | 0.00 | 0.00 | 0.00 | 83 | 1009.7 |
| 20260506122503 | 12 | 162 | 11.3 | 22.5 | 0.00 | 0.00 | 0.00 | 84 | 1009.7 |
| 20260506122003 | 12 | 168 | 9.7 | 22.5 | 0.00 | 0.00 | 0.00 | 84 | 1009.8 |
| 20260506121503 | 12 | 161 | 6.4 | 19.3 | 0.00 | 0.00 | 0.00 | 84 | 1009.9 |
| 20260506121003 | 12 | 154 | 6.4 | 12.9 | 0.00 | 0.00 | 0.00 | 84 | 1010.0 |
| 20260506120503 | 12 | 160 | 8.0 | 14.5 | 0.00 | 0.00 | 0.00 | 85 | 1009.8 |
| 20260506120003 | 12 | 164 | 8.0 | 14.5 | 0.00 | 0.00 | 0.00 | 84 | 1010.0 |
| 20260506115524 | 12 | 165 | 6.4 | 11.3 | 0.00 | 0.00 | 0.00 | 85 | 1010.1 |